sensor_id;sensor_type;location;lat;lon;timestamp;P1;durP1;ratioP1;P2;durP2;ratioP2
50309;SDS011;36207;51.850;21.698;2024-03-02T00:00:22;45.60;;;28.20;;
50309;SDS011;36207;51.850;21.698;2024-03-02T00:03:11;42.80;;;27.40;;
50309;SDS011;36207;51.850;21.698;2024-03-02T00:05:39;46.00;;;26.80;;
50309;SDS011;36207;51.850;21.698;2024-03-02T00:08:06;44.60;;;27.50;;
50309;SDS011;36207;51.850;21.698;2024-03-02T00:10:36;43.70;;;27.10;;
50309;SDS011;36207;51.850;21.698;2024-03-02T00:13:06;43.30;;;26.00;;
50309;SDS011;36207;51.850;21.698;2024-03-02T00:15:46;47.40;;;28.60;;
50309;SDS011;36207;51.850;21.698;2024-03-02T00:18:21;42.40;;;26.90;;
50309;SDS011;36207;51.850;21.698;2024-03-02T00:20:55;46.40;;;27.40;;
50309;SDS011;36207;51.850;21.698;2024-03-02T00:23:27;41.60;;;26.90;;
50309;SDS011;36207;51.850;21.698;2024-03-02T00:25:56;43.60;;;26.90;;
50309;SDS011;36207;51.850;21.698;2024-03-02T00:28:23;46.30;;;28.00;;
50309;SDS011;36207;51.850;21.698;2024-03-02T00:30:51;44.00;;;27.60;;
50309;SDS011;36207;51.850;21.698;2024-03-02T00:33:20;45.60;;;27.30;;
50309;SDS011;36207;51.850;21.698;2024-03-02T00:35:47;43.90;;;27.40;;
50309;SDS011;36207;51.850;21.698;2024-03-02T00:38:14;43.30;;;26.70;;
50309;SDS011;36207;51.850;21.698;2024-03-02T00:40:44;41.00;;;26.10;;
50309;SDS011;36207;51.850;21.698;2024-03-02T00:46:16;46.50;;;26.70;;
50309;SDS011;36207;51.850;21.698;2024-03-02T00:49:03;44.00;;;26.10;;
50309;SDS011;36207;51.850;21.698;2024-03-02T00:51:31;38.00;;;25.20;;
50309;SDS011;36207;51.850;21.698;2024-03-02T00:54:02;41.00;;;25.70;;
50309;SDS011;36207;51.850;21.698;2024-03-02T00:56:30;40.20;;;25.10;;
50309;SDS011;36207;51.850;21.698;2024-03-02T00:58:56;41.80;;;25.70;;
50309;SDS011;36207;51.850;21.698;2024-03-02T01:01:23;41.20;;;25.90;;
50309;SDS011;36207;51.850;21.698;2024-03-02T01:03:49;41.50;;;26.00;;
50309;SDS011;36207;51.850;21.698;2024-03-02T01:06:16;42.70;;;26.40;;
50309;SDS011;36207;51.850;21.698;2024-03-02T01:08:42;41.80;;;26.00;;
50309;SDS011;36207;51.850;21.698;2024-03-02T01:11:08;39.00;;;25.30;;
50309;SDS011;36207;51.850;21.698;2024-03-02T01:13:34;39.90;;;25.90;;
50309;SDS011;36207;51.850;21.698;2024-03-02T01:16:01;40.70;;;25.90;;
50309;SDS011;36207;51.850;21.698;2024-03-02T01:18:28;42.60;;;26.00;;
50309;SDS011;36207;51.850;21.698;2024-03-02T01:20:53;45.00;;;25.70;;
50309;SDS011;36207;51.850;21.698;2024-03-02T01:23:22;45.40;;;26.60;;
50309;SDS011;36207;51.850;21.698;2024-03-02T01:25:49;42.30;;;26.30;;
50309;SDS011;36207;51.850;21.698;2024-03-02T01:28:16;44.10;;;27.30;;
50309;SDS011;36207;51.850;21.698;2024-03-02T01:30:42;45.40;;;27.00;;
50309;SDS011;36207;51.850;21.698;2024-03-02T01:33:08;41.40;;;27.10;;
50309;SDS011;36207;51.850;21.698;2024-03-02T01:35:34;42.20;;;27.20;;
50309;SDS011;36207;51.850;21.698;2024-03-02T01:38:03;45.80;;;27.20;;
50309;SDS011;36207;51.850;21.698;2024-03-02T01:40:32;47.00;;;28.00;;
50309;SDS011;36207;51.850;21.698;2024-03-02T01:42:59;44.70;;;26.70;;
50309;SDS011;36207;51.850;21.698;2024-03-02T01:45:25;45.40;;;27.40;;
50309;SDS011;36207;51.850;21.698;2024-03-02T01:47:52;44.20;;;27.50;;
50309;SDS011;36207;51.850;21.698;2024-03-02T01:50:25;45.30;;;27.40;;
50309;SDS011;36207;51.850;21.698;2024-03-02T01:52:58;45.50;;;27.60;;
50309;SDS011;36207;51.850;21.698;2024-03-02T01:55:24;43.40;;;26.50;;
50309;SDS011;36207;51.850;21.698;2024-03-02T01:57:51;47.40;;;27.80;;
50309;SDS011;36207;51.850;21.698;2024-03-02T02:00:18;46.40;;;27.40;;
50309;SDS011;36207;51.850;21.698;2024-03-02T02:02:46;44.60;;;27.80;;
50309;SDS011;36207;51.850;21.698;2024-03-02T02:05:13;47.20;;;28.00;;
50309;SDS011;36207;51.850;21.698;2024-03-02T02:07:40;45.80;;;27.30;;
50309;SDS011;36207;51.850;21.698;2024-03-02T02:10:08;45.90;;;28.50;;
50309;SDS011;36207;51.850;21.698;2024-03-02T02:12:35;48.20;;;29.10;;
50309;SDS011;36207;51.850;21.698;2024-03-02T02:15:02;50.90;;;28.20;;
50309;SDS011;36207;51.850;21.698;2024-03-02T02:17:28;49.90;;;28.50;;
50309;SDS011;36207;51.850;21.698;2024-03-02T02:19:54;47.00;;;28.60;;
50309;SDS011;36207;51.850;21.698;2024-03-02T02:22:20;44.00;;;27.30;;
50309;SDS011;36207;51.850;21.698;2024-03-02T02:24:46;46.40;;;27.90;;
50309;SDS011;36207;51.850;21.698;2024-03-02T02:27:11;45.00;;;27.20;;
50309;SDS011;36207;51.850;21.698;2024-03-02T02:29:40;44.50;;;27.00;;
50309;SDS011;36207;51.850;21.698;2024-03-02T02:32:07;46.50;;;26.30;;
50309;SDS011;36207;51.850;21.698;2024-03-02T02:34:33;46.30;;;27.70;;
50309;SDS011;36207;51.850;21.698;2024-03-02T02:36:59;44.10;;;26.70;;
50309;SDS011;36207;51.850;21.698;2024-03-02T02:39:25;46.50;;;27.50;;
50309;SDS011;36207;51.850;21.698;2024-03-02T02:41:51;46.60;;;28.00;;
50309;SDS011;36207;51.850;21.698;2024-03-02T02:44:17;47.20;;;27.50;;
50309;SDS011;36207;51.850;21.698;2024-03-02T02:46:42;47.70;;;28.10;;
50309;SDS011;36207;51.850;21.698;2024-03-02T02:49:08;48.90;;;27.70;;
50309;SDS011;36207;51.850;21.698;2024-03-02T02:51:34;51.10;;;28.40;;
50309;SDS011;36207;51.850;21.698;2024-03-02T02:54:01;52.00;;;30.30;;
50309;SDS011;36207;51.850;21.698;2024-03-02T02:56:26;48.90;;;29.10;;
50309;SDS011;36207;51.850;21.698;2024-03-02T02:58:53;55.80;;;28.20;;
50309;SDS011;36207;51.850;21.698;2024-03-02T03:01:19;45.70;;;26.60;;
50309;SDS011;36207;51.850;21.698;2024-03-02T03:03:45;50.90;;;28.80;;
50309;SDS011;36207;51.850;21.698;2024-03-02T03:06:11;50.60;;;28.20;;
50309;SDS011;36207;51.850;21.698;2024-03-02T03:08:37;47.20;;;28.20;;
50309;SDS011;36207;51.850;21.698;2024-03-02T03:11:03;50.60;;;28.50;;
50309;SDS011;36207;51.850;21.698;2024-03-02T03:13:31;49.10;;;28.00;;
50309;SDS011;36207;51.850;21.698;2024-03-02T03:15:57;50.40;;;28.10;;
50309;SDS011;36207;51.850;21.698;2024-03-02T03:18:23;53.80;;;29.50;;
50309;SDS011;36207;51.850;21.698;2024-03-02T03:20:49;48.00;;;28.00;;
50309;SDS011;36207;51.850;21.698;2024-03-02T03:23:15;50.30;;;27.90;;
50309;SDS011;36207;51.850;21.698;2024-03-02T03:25:42;47.60;;;27.40;;
50309;SDS011;36207;51.850;21.698;2024-03-02T03:28:09;50.70;;;27.00;;
50309;SDS011;36207;51.850;21.698;2024-03-02T03:30:37;49.80;;;27.90;;
50309;SDS011;36207;51.850;21.698;2024-03-02T03:33:04;52.10;;;28.40;;
50309;SDS011;36207;51.850;21.698;2024-03-02T03:35:34;52.00;;;29.60;;
50309;SDS011;36207;51.850;21.698;2024-03-02T03:38:02;49.60;;;28.40;;
50309;SDS011;36207;51.850;21.698;2024-03-02T03:40:28;53.00;;;28.90;;
50309;SDS011;36207;51.850;21.698;2024-03-02T03:42:54;48.30;;;26.40;;
50309;SDS011;36207;51.850;21.698;2024-03-02T03:45:22;46.80;;;26.40;;
50309;SDS011;36207;51.850;21.698;2024-03-02T03:47:47;50.30;;;26.80;;
50309;SDS011;36207;51.850;21.698;2024-03-02T03:50:14;46.30;;;26.40;;
50309;SDS011;36207;51.850;21.698;2024-03-02T03:52:40;47.50;;;27.50;;
50309;SDS011;36207;51.850;21.698;2024-03-02T03:55:06;48.90;;;26.30;;
50309;SDS011;36207;51.850;21.698;2024-03-02T03:57:32;41.30;;;24.30;;
50309;SDS011;36207;51.850;21.698;2024-03-02T03:59:58;46.30;;;26.00;;
50309;SDS011;36207;51.850;21.698;2024-03-02T04:02:24;42.30;;;23.90;;
50309;SDS011;36207;51.850;21.698;2024-03-02T04:04:50;45.00;;;24.80;;
50309;SDS011;36207;51.850;21.698;2024-03-02T04:07:16;47.60;;;25.60;;
50309;SDS011;36207;51.850;21.698;2024-03-02T04:09:42;44.10;;;24.50;;
50309;SDS011;36207;51.850;21.698;2024-03-02T04:12:08;42.00;;;23.40;;
50309;SDS011;36207;51.850;21.698;2024-03-02T04:14:34;43.50;;;24.40;;
50309;SDS011;36207;51.850;21.698;2024-03-02T04:16:59;43.10;;;24.10;;
50309;SDS011;36207;51.850;21.698;2024-03-02T04:19:25;39.80;;;23.50;;
50309;SDS011;36207;51.850;21.698;2024-03-02T04:21:51;38.60;;;23.20;;
50309;SDS011;36207;51.850;21.698;2024-03-02T04:24:17;42.00;;;24.00;;
50309;SDS011;36207;51.850;21.698;2024-03-02T04:26:43;40.70;;;23.10;;
50309;SDS011;36207;51.850;21.698;2024-03-02T04:29:09;45.00;;;24.10;;
50309;SDS011;36207;51.850;21.698;2024-03-02T04:31:35;38.90;;;22.70;;
50309;SDS011;36207;51.850;21.698;2024-03-02T04:34:01;40.40;;;22.90;;
50309;SDS011;36207;51.850;21.698;2024-03-02T04:36:26;42.10;;;23.10;;
50309;SDS011;36207;51.850;21.698;2024-03-02T04:38:52;37.70;;;21.70;;
50309;SDS011;36207;51.850;21.698;2024-03-02T04:41:18;38.30;;;22.20;;
50309;SDS011;36207;51.850;21.698;2024-03-02T04:43:44;40.60;;;23.00;;
50309;SDS011;36207;51.850;21.698;2024-03-02T04:46:10;38.40;;;22.10;;
50309;SDS011;36207;51.850;21.698;2024-03-02T04:48:36;40.90;;;23.50;;
50309;SDS011;36207;51.850;21.698;2024-03-02T04:51:02;38.20;;;22.80;;
50309;SDS011;36207;51.850;21.698;2024-03-02T04:53:29;40.20;;;23.40;;
50309;SDS011;36207;51.850;21.698;2024-03-02T04:55:55;44.20;;;23.80;;
50309;SDS011;36207;51.850;21.698;2024-03-02T04:58:40;39.00;;;23.50;;
50309;SDS011;36207;51.850;21.698;2024-03-02T05:01:06;41.70;;;23.60;;
50309;SDS011;36207;51.850;21.698;2024-03-02T05:03:32;42.90;;;23.80;;
50309;SDS011;36207;51.850;21.698;2024-03-02T05:06:00;42.30;;;24.80;;
50309;SDS011;36207;51.850;21.698;2024-03-02T05:08:26;41.80;;;23.60;;
50309;SDS011;36207;51.850;21.698;2024-03-02T05:10:52;45.10;;;23.20;;
50309;SDS011;36207;51.850;21.698;2024-03-02T05:13:17;38.10;;;22.80;;
50309;SDS011;36207;51.850;21.698;2024-03-02T05:15:43;40.70;;;22.90;;
50309;SDS011;36207;51.850;21.698;2024-03-02T05:18:09;39.30;;;22.60;;
50309;SDS011;36207;51.850;21.698;2024-03-02T05:20:35;40.10;;;21.80;;
50309;SDS011;36207;51.850;21.698;2024-03-02T05:23:01;39.00;;;22.20;;
50309;SDS011;36207;51.850;21.698;2024-03-02T05:25:27;42.80;;;23.00;;
50309;SDS011;36207;51.850;21.698;2024-03-02T05:27:53;41.90;;;21.20;;
50309;SDS011;36207;51.850;21.698;2024-03-02T05:30:19;39.10;;;21.60;;
50309;SDS011;36207;51.850;21.698;2024-03-02T05:32:45;37.50;;;21.00;;
50309;SDS011;36207;51.850;21.698;2024-03-02T05:35:11;42.20;;;22.10;;
50309;SDS011;36207;51.850;21.698;2024-03-02T05:37:38;41.70;;;22.20;;
50309;SDS011;36207;51.850;21.698;2024-03-02T05:40:05;39.30;;;21.40;;
50309;SDS011;36207;51.850;21.698;2024-03-02T05:42:31;38.80;;;21.80;;
50309;SDS011;36207;51.850;21.698;2024-03-02T05:44:57;42.80;;;22.50;;
50309;SDS011;36207;51.850;21.698;2024-03-02T05:47:23;39.80;;;22.40;;
50309;SDS011;36207;51.850;21.698;2024-03-02T05:49:49;42.80;;;23.50;;
50309;SDS011;36207;51.850;21.698;2024-03-02T05:52:15;40.20;;;23.00;;
50309;SDS011;36207;51.850;21.698;2024-03-02T05:54:41;45.30;;;23.00;;
50309;SDS011;36207;51.850;21.698;2024-03-02T05:57:07;45.20;;;22.50;;
50309;SDS011;36207;51.850;21.698;2024-03-02T05:59:51;38.20;;;22.40;;
50309;SDS011;36207;51.850;21.698;2024-03-02T06:02:17;42.50;;;20.50;;
50309;SDS011;36207;51.850;21.698;2024-03-02T06:04:43;37.60;;;21.20;;
50309;SDS011;36207;51.850;21.698;2024-03-02T06:07:09;36.90;;;21.20;;
50309;SDS011;36207;51.850;21.698;2024-03-02T06:09:35;41.30;;;22.30;;
50309;SDS011;36207;51.850;21.698;2024-03-02T06:12:00;36.00;;;20.50;;
50309;SDS011;36207;51.850;21.698;2024-03-02T06:14:26;37.90;;;21.20;;
50309;SDS011;36207;51.850;21.698;2024-03-02T06:16:52;43.90;;;23.20;;
50309;SDS011;36207;51.850;21.698;2024-03-02T06:19:18;45.70;;;23.10;;
50309;SDS011;36207;51.850;21.698;2024-03-02T06:21:44;43.70;;;23.30;;
50309;SDS011;36207;51.850;21.698;2024-03-02T06:24:10;44.00;;;23.90;;
50309;SDS011;36207;51.850;21.698;2024-03-02T06:26:36;46.50;;;22.50;;
50309;SDS011;36207;51.850;21.698;2024-03-02T06:29:02;47.10;;;22.90;;
50309;SDS011;36207;51.850;21.698;2024-03-02T06:31:28;41.00;;;21.90;;
50309;SDS011;36207;51.850;21.698;2024-03-02T06:33:54;37.20;;;21.00;;
50309;SDS011;36207;51.850;21.698;2024-03-02T06:36:20;42.00;;;21.20;;
50309;SDS011;36207;51.850;21.698;2024-03-02T06:38:46;40.40;;;20.50;;
50309;SDS011;36207;51.850;21.698;2024-03-02T06:41:12;40.40;;;22.20;;
50309;SDS011;36207;51.850;21.698;2024-03-02T06:43:37;40.40;;;21.50;;
50309;SDS011;36207;51.850;21.698;2024-03-02T06:46:04;43.00;;;22.70;;
50309;SDS011;36207;51.850;21.698;2024-03-02T06:48:31;41.40;;;23.30;;
50309;SDS011;36207;51.850;21.698;2024-03-02T06:50:57;40.80;;;22.20;;
50309;SDS011;36207;51.850;21.698;2024-03-02T06:53:23;39.10;;;21.50;;
50309;SDS011;36207;51.850;21.698;2024-03-02T06:55:49;42.30;;;22.10;;
50309;SDS011;36207;51.850;21.698;2024-03-02T06:58:15;40.20;;;22.60;;
50309;SDS011;36207;51.850;21.698;2024-03-02T07:00:41;44.20;;;23.30;;
50309;SDS011;36207;51.850;21.698;2024-03-02T07:03:08;40.80;;;21.50;;
50309;SDS011;36207;51.850;21.698;2024-03-02T07:05:34;36.60;;;20.30;;
50309;SDS011;36207;51.850;21.698;2024-03-02T07:08:00;40.90;;;21.70;;
50309;SDS011;36207;51.850;21.698;2024-03-02T07:10:28;42.10;;;21.90;;
50309;SDS011;36207;51.850;21.698;2024-03-02T07:12:53;42.40;;;21.20;;
50309;SDS011;36207;51.850;21.698;2024-03-02T07:15:19;37.80;;;21.60;;
50309;SDS011;36207;51.850;21.698;2024-03-02T07:18:08;39.60;;;21.40;;
50309;SDS011;36207;51.850;21.698;2024-03-02T07:20:34;42.00;;;22.00;;
50309;SDS011;36207;51.850;21.698;2024-03-02T07:23:00;40.30;;;21.90;;
50309;SDS011;36207;51.850;21.698;2024-03-02T07:25:26;41.50;;;21.20;;
50309;SDS011;36207;51.850;21.698;2024-03-02T07:27:52;41.10;;;22.20;;
50309;SDS011;36207;51.850;21.698;2024-03-02T07:30:18;40.70;;;21.20;;
50309;SDS011;36207;51.850;21.698;2024-03-02T07:32:44;41.10;;;21.20;;
50309;SDS011;36207;51.850;21.698;2024-03-02T07:35:12;39.80;;;20.30;;
50309;SDS011;36207;51.850;21.698;2024-03-02T07:37:38;38.90;;;21.60;;
50309;SDS011;36207;51.850;21.698;2024-03-02T07:40:05;41.60;;;20.90;;
50309;SDS011;36207;51.850;21.698;2024-03-02T07:42:35;46.00;;;21.80;;
50309;SDS011;36207;51.850;21.698;2024-03-02T07:45:01;43.60;;;21.60;;
50309;SDS011;36207;51.850;21.698;2024-03-02T07:47:28;42.50;;;22.40;;
50309;SDS011;36207;51.850;21.698;2024-03-02T07:49:54;41.40;;;21.10;;
50309;SDS011;36207;51.850;21.698;2024-03-02T07:52:20;39.40;;;22.00;;
50309;SDS011;36207;51.850;21.698;2024-03-02T07:54:46;40.20;;;21.30;;
50309;SDS011;36207;51.850;21.698;2024-03-02T07:57:12;39.40;;;22.60;;
50309;SDS011;36207;51.850;21.698;2024-03-02T07:59:38;39.90;;;21.60;;
50309;SDS011;36207;51.850;21.698;2024-03-02T08:02:04;37.70;;;21.80;;
50309;SDS011;36207;51.850;21.698;2024-03-02T08:04:30;43.60;;;22.10;;
50309;SDS011;36207;51.850;21.698;2024-03-02T08:06:56;41.40;;;21.80;;
50309;SDS011;36207;51.850;21.698;2024-03-02T08:09:22;41.50;;;23.10;;
50309;SDS011;36207;51.850;21.698;2024-03-02T08:11:48;47.00;;;23.90;;
50309;SDS011;36207;51.850;21.698;2024-03-02T08:14:14;44.50;;;23.80;;
50309;SDS011;36207;51.850;21.698;2024-03-02T08:16:40;39.60;;;22.30;;
50309;SDS011;36207;51.850;21.698;2024-03-02T08:19:07;44.20;;;23.90;;
50309;SDS011;36207;51.850;21.698;2024-03-02T08:21:34;43.50;;;22.90;;
50309;SDS011;36207;51.850;21.698;2024-03-02T08:24:01;41.70;;;23.40;;
50309;SDS011;36207;51.850;21.698;2024-03-02T08:26:28;45.90;;;22.70;;
50309;SDS011;36207;51.850;21.698;2024-03-02T08:28:55;44.50;;;21.80;;
50309;SDS011;36207;51.850;21.698;2024-03-02T08:31:22;38.40;;;22.90;;
50309;SDS011;36207;51.850;21.698;2024-03-02T08:33:47;39.10;;;22.40;;
50309;SDS011;36207;51.850;21.698;2024-03-02T08:36:14;41.20;;;23.10;;
50309;SDS011;36207;51.850;21.698;2024-03-02T08:38:40;45.60;;;24.40;;
50309;SDS011;36207;51.850;21.698;2024-03-02T08:41:06;45.90;;;25.20;;
50309;SDS011;36207;51.850;21.698;2024-03-02T08:43:33;47.30;;;25.30;;
50309;SDS011;36207;51.850;21.698;2024-03-02T08:45:59;44.60;;;23.60;;
50309;SDS011;36207;51.850;21.698;2024-03-02T08:48:25;45.70;;;26.20;;
50309;SDS011;36207;51.850;21.698;2024-03-02T08:50:50;44.60;;;25.60;;
50309;SDS011;36207;51.850;21.698;2024-03-02T08:53:16;49.40;;;26.50;;
50309;SDS011;36207;51.850;21.698;2024-03-02T08:55:47;47.20;;;26.30;;
50309;SDS011;36207;51.850;21.698;2024-03-02T08:58:13;50.80;;;28.90;;
50309;SDS011;36207;51.850;21.698;2024-03-02T09:00:39;50.40;;;28.00;;
50309;SDS011;36207;51.850;21.698;2024-03-02T09:03:06;55.90;;;28.80;;
50309;SDS011;36207;51.850;21.698;2024-03-02T09:05:32;52.20;;;29.90;;
50309;SDS011;36207;51.850;21.698;2024-03-02T09:07:58;59.00;;;31.30;;
50309;SDS011;36207;51.850;21.698;2024-03-02T09:10:24;49.70;;;27.50;;
50309;SDS011;36207;51.850;21.698;2024-03-02T09:12:50;48.40;;;28.70;;
50309;SDS011;36207;51.850;21.698;2024-03-02T09:15:16;50.20;;;28.00;;
50309;SDS011;36207;51.850;21.698;2024-03-02T09:17:42;53.70;;;28.00;;
50309;SDS011;36207;51.850;21.698;2024-03-02T09:20:08;58.50;;;30.50;;
50309;SDS011;36207;51.850;21.698;2024-03-02T09:22:34;46.90;;;28.30;;
50309;SDS011;36207;51.850;21.698;2024-03-02T09:25:00;51.20;;;29.30;;
50309;SDS011;36207;51.850;21.698;2024-03-02T09:27:26;45.90;;;28.80;;
50309;SDS011;36207;51.850;21.698;2024-03-02T09:29:52;48.90;;;29.10;;
50309;SDS011;36207;51.850;21.698;2024-03-02T09:32:18;52.20;;;31.20;;
50309;SDS011;36207;51.850;21.698;2024-03-02T09:34:44;57.70;;;31.00;;
50309;SDS011;36207;51.850;21.698;2024-03-02T09:37:10;51.80;;;29.60;;
50309;SDS011;36207;51.850;21.698;2024-03-02T09:39:36;56.90;;;29.90;;
50309;SDS011;36207;51.850;21.698;2024-03-02T09:42:03;48.60;;;28.00;;
50309;SDS011;36207;51.850;21.698;2024-03-02T09:44:30;50.40;;;29.00;;
50309;SDS011;36207;51.850;21.698;2024-03-02T09:46:56;52.70;;;28.60;;
50309;SDS011;36207;51.850;21.698;2024-03-02T09:49:22;46.10;;;28.00;;
50309;SDS011;36207;51.850;21.698;2024-03-02T09:51:48;50.50;;;28.40;;
50309;SDS011;36207;51.850;21.698;2024-03-02T09:54:15;49.90;;;29.70;;
50309;SDS011;36207;51.850;21.698;2024-03-02T09:56:41;49.00;;;28.40;;
50309;SDS011;36207;51.850;21.698;2024-03-02T09:59:07;49.30;;;28.10;;
50309;SDS011;36207;51.850;21.698;2024-03-02T10:01:34;50.10;;;28.00;;
50309;SDS011;36207;51.850;21.698;2024-03-02T10:04:00;47.60;;;27.70;;
50309;SDS011;36207;51.850;21.698;2024-03-02T10:06:27;45.80;;;28.40;;
50309;SDS011;36207;51.850;21.698;2024-03-02T10:08:55;48.40;;;27.70;;
50309;SDS011;36207;51.850;21.698;2024-03-02T10:11:39;47.90;;;27.60;;
50309;SDS011;36207;51.850;21.698;2024-03-02T10:14:06;48.50;;;27.60;;
50309;SDS011;36207;51.850;21.698;2024-03-02T10:16:37;45.20;;;27.60;;
50309;SDS011;36207;51.850;21.698;2024-03-02T10:21:45;43.10;;;26.40;;
50309;SDS011;36207;51.850;21.698;2024-03-02T10:24:13;47.30;;;26.90;;
50309;SDS011;36207;51.850;21.698;2024-03-02T10:26:39;40.80;;;26.40;;
50309;SDS011;36207;51.850;21.698;2024-03-02T10:29:05;43.20;;;27.40;;
50309;SDS011;36207;51.850;21.698;2024-03-02T10:31:31;45.00;;;26.60;;
50309;SDS011;36207;51.850;21.698;2024-03-02T10:33:58;48.10;;;27.60;;
50309;SDS011;36207;51.850;21.698;2024-03-02T10:36:25;42.90;;;25.60;;
50309;SDS011;36207;51.850;21.698;2024-03-02T10:38:51;47.80;;;26.90;;
50309;SDS011;36207;51.850;21.698;2024-03-02T10:41:23;50.70;;;26.60;;
50309;SDS011;36207;51.850;21.698;2024-03-02T10:43:52;43.40;;;25.90;;
50309;SDS011;36207;51.850;21.698;2024-03-02T10:46:28;43.40;;;26.00;;
50309;SDS011;36207;51.850;21.698;2024-03-02T10:48:56;44.70;;;25.70;;
50309;SDS011;36207;51.850;21.698;2024-03-02T10:51:26;42.60;;;24.60;;
50309;SDS011;36207;51.850;21.698;2024-03-02T10:53:57;41.90;;;25.40;;
50309;SDS011;36207;51.850;21.698;2024-03-02T10:56:30;44.20;;;25.90;;
50309;SDS011;36207;51.850;21.698;2024-03-02T11:01:46;40.50;;;26.30;;
50309;SDS011;36207;51.850;21.698;2024-03-02T11:04:15;45.30;;;25.70;;
50309;SDS011;36207;51.850;21.698;2024-03-02T11:06:45;43.10;;;25.50;;
50309;SDS011;36207;51.850;21.698;2024-03-02T11:09:14;40.90;;;24.00;;
50309;SDS011;36207;51.850;21.698;2024-03-02T11:11:44;41.50;;;25.50;;
50309;SDS011;36207;51.850;21.698;2024-03-02T11:14:16;44.80;;;24.90;;
50309;SDS011;36207;51.850;21.698;2024-03-02T11:16:42;43.30;;;25.80;;
50309;SDS011;36207;51.850;21.698;2024-03-02T11:19:11;40.90;;;25.40;;
50309;SDS011;36207;51.850;21.698;2024-03-02T11:21:38;46.00;;;26.40;;
50309;SDS011;36207;51.850;21.698;2024-03-02T11:26:47;45.40;;;26.20;;
50309;SDS011;36207;51.850;21.698;2024-03-02T11:32:16;45.10;;;27.20;;
50309;SDS011;36207;51.850;21.698;2024-03-02T11:34:48;44.30;;;28.00;;
50309;SDS011;36207;51.850;21.698;2024-03-02T11:37:19;46.60;;;27.10;;
50309;SDS011;36207;51.850;21.698;2024-03-02T11:39:49;42.30;;;26.60;;
50309;SDS011;36207;51.850;21.698;2024-03-02T11:42:17;44.30;;;26.40;;
50309;SDS011;36207;51.850;21.698;2024-03-02T11:44:46;41.60;;;26.50;;
50309;SDS011;36207;51.850;21.698;2024-03-02T11:47:14;43.60;;;26.30;;
50309;SDS011;36207;51.850;21.698;2024-03-02T11:49:45;41.30;;;25.40;;
50309;SDS011;36207;51.850;21.698;2024-03-02T11:52:16;43.30;;;27.00;;
50309;SDS011;36207;51.850;21.698;2024-03-02T11:54:44;41.90;;;25.20;;
50309;SDS011;36207;51.850;21.698;2024-03-02T11:57:15;45.00;;;26.30;;
50309;SDS011;36207;51.850;21.698;2024-03-02T11:59:43;42.80;;;26.80;;
50309;SDS011;36207;51.850;21.698;2024-03-02T12:02:14;43.30;;;25.90;;
50309;SDS011;36207;51.850;21.698;2024-03-02T12:04:46;42.50;;;24.60;;
50309;SDS011;36207;51.850;21.698;2024-03-02T12:07:22;43.90;;;25.50;;
50309;SDS011;36207;51.850;21.698;2024-03-02T12:09:49;44.70;;;26.60;;
50309;SDS011;36207;51.850;21.698;2024-03-02T12:12:26;43.00;;;26.60;;
50309;SDS011;36207;51.850;21.698;2024-03-02T12:14:52;45.40;;;27.50;;
50309;SDS011;36207;51.850;21.698;2024-03-02T12:17:21;44.20;;;26.80;;
50309;SDS011;36207;51.850;21.698;2024-03-02T12:19:48;43.40;;;26.50;;
50309;SDS011;36207;51.850;21.698;2024-03-02T12:22:14;43.20;;;26.50;;
50309;SDS011;36207;51.850;21.698;2024-03-02T12:24:41;43.60;;;25.90;;
50309;SDS011;36207;51.850;21.698;2024-03-02T12:27:11;43.70;;;26.60;;
50309;SDS011;36207;51.850;21.698;2024-03-02T12:29:38;46.00;;;26.40;;
50309;SDS011;36207;51.850;21.698;2024-03-02T12:32:04;48.10;;;29.40;;
50309;SDS011;36207;51.850;21.698;2024-03-02T12:34:31;43.30;;;26.70;;
50309;SDS011;36207;51.850;21.698;2024-03-02T12:36:58;49.20;;;26.80;;
50309;SDS011;36207;51.850;21.698;2024-03-02T12:39:24;43.40;;;26.80;;
50309;SDS011;36207;51.850;21.698;2024-03-02T12:41:50;47.00;;;28.00;;
50309;SDS011;36207;51.850;21.698;2024-03-02T12:44:19;49.10;;;27.50;;
50309;SDS011;36207;51.850;21.698;2024-03-02T12:46:46;49.20;;;28.80;;
50309;SDS011;36207;51.850;21.698;2024-03-02T12:49:13;44.60;;;27.40;;
50309;SDS011;36207;51.850;21.698;2024-03-02T12:51:43;46.20;;;28.60;;
50309;SDS011;36207;51.850;21.698;2024-03-02T12:54:12;46.50;;;27.70;;
50309;SDS011;36207;51.850;21.698;2024-03-02T12:56:40;48.20;;;27.60;;
50309;SDS011;36207;51.850;21.698;2024-03-02T12:59:17;45.20;;;26.00;;
50309;SDS011;36207;51.850;21.698;2024-03-02T13:01:54;44.60;;;27.70;;
50309;SDS011;36207;51.850;21.698;2024-03-02T13:04:26;45.80;;;28.30;;
50309;SDS011;36207;51.850;21.698;2024-03-02T13:06:57;40.40;;;25.90;;
50309;SDS011;36207;51.850;21.698;2024-03-02T13:09:23;39.80;;;25.70;;
50309;SDS011;36207;51.850;21.698;2024-03-02T13:11:50;47.60;;;27.30;;
50309;SDS011;36207;51.850;21.698;2024-03-02T13:14:16;39.90;;;25.20;;
50309;SDS011;36207;51.850;21.698;2024-03-02T13:16:42;44.10;;;26.40;;
50309;SDS011;36207;51.850;21.698;2024-03-02T13:19:09;44.00;;;26.80;;
50309;SDS011;36207;51.850;21.698;2024-03-02T13:21:37;40.10;;;26.90;;
50309;SDS011;36207;51.850;21.698;2024-03-02T13:24:04;43.60;;;26.60;;
50309;SDS011;36207;51.850;21.698;2024-03-02T13:26:31;41.70;;;25.30;;
50309;SDS011;36207;51.850;21.698;2024-03-02T13:28:57;41.20;;;25.90;;
50309;SDS011;36207;51.850;21.698;2024-03-02T13:31:23;44.10;;;26.40;;
50309;SDS011;36207;51.850;21.698;2024-03-02T13:33:49;43.40;;;26.60;;
50309;SDS011;36207;51.850;21.698;2024-03-02T13:36:14;39.00;;;25.70;;
50309;SDS011;36207;51.850;21.698;2024-03-02T13:38:40;43.50;;;26.30;;
50309;SDS011;36207;51.850;21.698;2024-03-02T13:41:06;46.00;;;27.60;;
50309;SDS011;36207;51.850;21.698;2024-03-02T13:43:32;43.50;;;26.00;;
50309;SDS011;36207;51.850;21.698;2024-03-02T13:45:58;41.00;;;25.10;;
50309;SDS011;36207;51.850;21.698;2024-03-02T13:48:25;40.70;;;24.20;;
50309;SDS011;36207;51.850;21.698;2024-03-02T13:50:51;42.00;;;25.20;;
50309;SDS011;36207;51.850;21.698;2024-03-02T13:53:19;42.00;;;25.10;;
50309;SDS011;36207;51.850;21.698;2024-03-02T13:55:45;41.00;;;24.70;;
50309;SDS011;36207;51.850;21.698;2024-03-02T13:58:12;41.60;;;24.70;;
50309;SDS011;36207;51.850;21.698;2024-03-02T14:00:38;39.20;;;24.20;;
50309;SDS011;36207;51.850;21.698;2024-03-02T14:03:04;36.50;;;23.20;;
50309;SDS011;36207;51.850;21.698;2024-03-02T14:05:32;41.70;;;23.30;;
50309;SDS011;36207;51.850;21.698;2024-03-02T14:07:58;40.30;;;23.90;;
50309;SDS011;36207;51.850;21.698;2024-03-02T14:10:26;39.20;;;25.30;;
50309;SDS011;36207;51.850;21.698;2024-03-02T14:12:52;39.70;;;23.60;;
50309;SDS011;36207;51.850;21.698;2024-03-02T14:15:21;38.50;;;23.60;;
50309;SDS011;36207;51.850;21.698;2024-03-02T14:17:47;33.90;;;22.40;;
50309;SDS011;36207;51.850;21.698;2024-03-02T14:20:14;37.50;;;23.60;;
50309;SDS011;36207;51.850;21.698;2024-03-02T14:22:40;39.20;;;24.10;;